Time;durP1;ratioP1;P1;durP2;ratioP2;P2;SDS_P1;SDS_P2;PMS_P1;PMS_P2;Temp;Humidity;BMP_temperature;BMP_pressure;BME280_temperature;BME280_humidity;BME280_pressure;Samples;Min_cycle;Max_cycle;Signal;HPM_P1;HPM_P2
2020/12/07 00:00:12;;;;;;;219.87;82.53;;;2.40;99.90;;;;;;5102151;28;20218;-74
2020/12/07 00:02:39;;;;;;;198.13;77.57;;;2.40;99.90;;;;;;5092448;28;20560;-74
2020/12/07 00:05:05;;;;;;;207.77;82.60;;;2.50;99.90;;;;;;5091377;28;20233;-75
2020/12/07 00:07:32;;;;;;;206.57;82.13;;;2.50;99.90;;;;;;5086657;28;20555;-75
2020/12/07 00:10:01;;;;;;;196.87;78.47;;;2.60;99.90;;;;;;5095646;28;20609;-75
2020/12/07 00:12:29;;;;;;;215.73;79.20;;;2.60;99.90;;;;;;5095760;28;20568;-75
2020/12/07 00:14:56;;;;;;;192.47;76.20;;;2.60;99.90;;;;;;5095713;28;20234;-75
2020/12/07 00:17:23;;;;;;;192.40;76.27;;;2.50;99.90;;;;;;5096513;28;20194;-75
2020/12/07 00:19:50;;;;;;;186.50;76.70;;;2.50;99.90;;;;;;5081566;28;20207;-81
2020/12/07 00:22:21;;;;;;;204.43;76.33;;;2.60;99.90;;;;;;5089328;28;20199;-74
2020/12/07 00:24:47;;;;;;;205.27;77.30;;;2.60;99.90;;;;;;5088858;28;20659;-74
2020/12/07 00:27:14;;;;;;;189.73;73.13;;;2.60;99.90;;;;;;5076467;28;20206;-75
2020/12/07 00:29:41;;;;;;;213.53;77.93;;;2.60;99.90;;;;;;5075244;28;20217;-74
2020/12/07 00:32:07;;;;;;;184.43;73.03;;;2.60;99.90;;;;;;5075773;28;20199;-75
2020/12/07 00:34:33;;;;;;;192.33;74.77;;;2.60;99.90;;;;;;5075139;28;20210;-75
2020/12/07 00:37:00;;;;;;;198.90;73.43;;;2.60;99.90;;;;;;5089705;28;20203;-75
2020/12/07 00:39:26;;;;;;;197.03;74.87;;;2.60;99.90;;;;;;5082910;28;20198;-74
2020/12/07 00:41:56;;;;;;;217.10;78.27;;;2.60;99.90;;;;;;5095246;28;20645;-74
2020/12/07 00:44:23;;;;;;;215.97;76.67;;;2.60;99.90;;;;;;5081483;28;20209;-75
2020/12/07 00:46:50;;;;;;;202.80;76.33;;;2.50;99.90;;;;;;5082939;28;20225;-74
2020/12/07 00:49:16;;;;;;;190.23;72.87;;;2.60;99.90;;;;;;5074788;28;20210;-74
2020/12/07 00:51:43;;;;;;;198.93;74.47;;;2.60;99.90;;;;;;5085892;28;20191;-75
2020/12/07 00:54:09;;;;;;;188.70;71.13;;;2.60;99.90;;;;;;5094842;28;20250;-74
2020/12/07 00:56:35;;;;;;;183.30;72.00;;;2.60;99.90;;;;;;5092135;28;20202;-75
2020/12/07 00:59:01;;;;;;;194.60;73.10;;;2.60;99.90;;;;;;5100157;28;20200;-75
2020/12/07 01:01:28;;;;;;;174.47;67.80;;;2.50;99.90;;;;;;5099439;28;20202;-75
2020/12/07 01:03:55;;;;;;;186.07;73.27;;;2.60;99.90;;;;;;5095179;28;20202;-75
2020/12/07 01:06:27;;;;;;;182.27;70.53;;;2.60;99.90;;;;;;5080721;28;20205;-75
2020/12/07 01:08:54;;;;;;;181.23;72.07;;;2.60;99.90;;;;;;5086830;28;20191;-75
2020/12/07 01:11:20;;;;;;;176.63;69.13;;;2.50;99.90;;;;;;5088812;28;20194;-76
2020/12/07 01:13:47;;;;;;;177.87;73.03;;;2.60;99.90;;;;;;5088427;28;20246;-75
2020/12/07 01:16:17;;;;;;;161.83;66.97;;;2.60;99.90;;;;;;5087358;28;20210;-75
2020/12/07 01:18:43;;;;;;;161.40;68.43;;;2.60;99.90;;;;;;5089409;28;20264;-75
2020/12/07 01:21:10;;;;;;;163.23;68.17;;;2.60;99.90;;;;;;5085269;28;20665;-75
2020/12/07 01:23:37;;;;;;;164.27;68.87;;;2.50;99.90;;;;;;5094700;28;20198;-76
2020/12/07 01:26:03;;;;;;;148.17;64.90;;;2.50;99.90;;;;;;5094729;28;20217;-74
2020/12/07 01:28:29;;;;;;;143.30;63.60;;;2.60;99.90;;;;;;5094771;28;20198;-74
2020/12/07 01:30:56;;;;;;;141.40;61.60;;;2.50;99.90;;;;;;5087310;28;20191;-75
2020/12/07 01:33:22;;;;;;;136.13;58.27;;;2.50;99.90;;;;;;5087508;28;20584;-74
2020/12/07 01:35:48;;;;;;;121.13;55.10;;;2.50;99.90;;;;;;5093953;28;20664;-75
2020/12/07 01:38:15;;;;;;;119.53;56.67;;;2.40;99.90;;;;;;5094286;28;20623;-74
2020/12/07 01:40:42;;;;;;;126.10;56.53;;;2.30;99.90;;;;;;5094115;28;20603;-76
2020/12/07 01:43:09;;;;;;;135.17;54.70;;;2.30;99.90;;;;;;5094131;28;20224;-74
2020/12/07 01:45:35;;;;;;;115.57;50.93;;;2.30;99.90;;;;;;5076766;28;20234;-74
2020/12/07 01:48:01;;;;;;;137.60;55.33;;;2.20;99.90;;;;;;5081878;28;20216;-75
2020/12/07 01:50:28;;;;;;;112.27;52.47;;;2.10;99.90;;;;;;5079605;28;20207;-74
2020/12/07 01:52:55;;;;;;;123.70;55.20;;;2.10;99.90;;;;;;5073715;28;20290;-74
2020/12/07 01:55:22;;;;;;;110.27;54.40;;;2.00;99.90;;;;;;5073419;28;20229;-75
2020/12/07 01:57:48;;;;;;;124.00;54.53;;;2.40;99.90;;;;;;5092686;28;20201;-76
2020/12/07 02:00:14;;;;;;;117.87;55.13;;;2.00;99.90;;;;;;5082635;28;20209;-74
2020/12/07 02:02:41;;;;;;;109.03;54.53;;;2.00;99.90;;;;;;5090767;28;20208;-74
2020/12/07 02:05:07;;;;;;;110.10;54.30;;;1.90;99.90;;;;;;5093446;28;20202;-75
2020/12/07 02:07:33;;;;;;;105.80;52.60;;;1.90;99.90;;;;;;5082492;28;20293;-74
2020/12/07 02:10:00;;;;;;;122.80;53.33;;;1.90;99.90;;;;;;5094574;28;20198;-74
2020/12/07 02:12:27;;;;;;;97.13;51.20;;;1.90;99.90;;;;;;5104889;28;20289;-74
2020/12/07 02:14:53;;;;;;;113.57;53.77;;;1.90;99.90;;;;;;5078806;28;20226;-75
2020/12/07 02:17:20;;;;;;;93.43;48.53;;;1.80;99.90;;;;;;5093794;28;20202;-74
2020/12/07 02:19:50;;;;;;;98.53;51.43;;;1.90;99.90;;;;;;5093242;28;20206;-74
2020/12/07 02:22:16;;;;;;;109.37;52.63;;;1.80;99.90;;;;;;5079518;28;20302;-75
2020/12/07 02:24:43;;;;;;;102.00;53.67;;;1.80;99.90;;;;;;5093501;28;20212;-75
2020/12/07 02:27:09;;;;;;;102.07;51.33;;;1.80;99.90;;;;;;5092971;28;20198;-75
2020/12/07 02:29:36;;;;;;;90.73;50.00;;;1.80;99.90;;;;;;5104020;28;20197;-75
2020/12/07 02:32:11;;;;;;;86.27;48.33;;;1.80;99.90;;;;;;5096162;28;20576;-74
2020/12/07 02:34:38;;;;;;;89.27;48.83;;;2.00;99.90;;;;;;5093304;28;20221;-74
2020/12/07 02:37:05;;;;;;;94.70;49.97;;;1.70;99.90;;;;;;5092673;28;20201;-75
2020/12/07 02:39:31;;;;;;;87.97;48.40;;;1.70;99.90;;;;;;5092929;28;20201;-76
2020/12/07 02:41:58;;;;;;;89.27;49.03;;;1.60;99.90;;;;;;5092328;28;20578;-75
2020/12/07 02:44:24;;;;;;;87.60;48.30;;;1.60;99.90;;;;;;5092974;28;20228;-75
2020/12/07 02:46:50;;;;;;;98.87;50.03;;;1.70;99.90;;;;;;5092698;28;20715;-75
2020/12/07 02:49:17;;;;;;;100.00;50.60;;;1.70;99.90;;;;;;5092712;28;20198;-74
2020/12/07 02:51:43;;;;;;;91.90;50.67;;;1.80;99.90;;;;;;5092899;28;20198;-75
2020/12/07 02:54:11;;;;;;;99.17;50.73;;;1.90;99.90;;;;;;5092847;28;20576;-73
2020/12/07 02:56:37;;;;;;;107.97;54.77;;;1.80;99.90;;;;;;5094843;28;20285;-73
2020/12/07 02:59:04;;;;;;;90.87;48.47;;;1.80;99.90;;;;;;5096031;28;20214;-75
2020/12/07 03:01:30;;;;;;;118.23;53.90;;;1.80;99.90;;;;;;5084211;28;20198;-73
2020/12/07 03:03:56;;;;;;;99.50;50.40;;;1.80;99.90;;;;;;5088195;28;20322;-73
2020/12/07 03:06:22;;;;;;;121.37;56.23;;;1.70;99.90;;;;;;5092089;28;20198;-74
2020/12/07 03:08:49;;;;;;;103.67;52.73;;;1.80;99.90;;;;;;5089829;28;20209;-75
2020/12/07 03:11:16;;;;;;;120.20;55.83;;;1.80;99.90;;;;;;5086063;28;20205;-75
2020/12/07 03:13:42;;;;;;;112.30;54.37;;;1.80;99.90;;;;;;5093967;28;20226;-74
2020/12/07 03:16:09;;;;;;;107.77;53.27;;;1.80;99.90;;;;;;5096880;28;20293;-74
2020/12/07 03:18:35;;;;;;;119.80;55.70;;;1.90;99.90;;;;;;5086967;28;20213;-74
2020/12/07 03:21:01;;;;;;;118.30;56.90;;;1.80;99.90;;;;;;5076346;28;20282;-74
2020/12/07 03:23:27;;;;;;;127.90;55.73;;;1.90;99.90;;;;;;5077541;28;20203;-74
2020/12/07 03:25:54;;;;;;;130.47;59.47;;;1.90;99.90;;;;;;5089732;28;20680;-75
2020/12/07 03:28:21;;;;;;;123.37;56.77;;;2.00;99.90;;;;;;5076827;28;20238;-75
2020/12/07 03:30:47;;;;;;;128.17;57.00;;;2.00;99.90;;;;;;5095381;28;20194;-75
2020/12/07 03:33:14;;;;;;;133.07;57.43;;;1.90;99.90;;;;;;5097057;28;20218;-75
2020/12/07 03:35:40;;;;;;;119.60;55.17;;;1.90;99.90;;;;;;5096357;28;20226;-75
2020/12/07 03:38:06;;;;;;;135.83;58.10;;;2.00;99.90;;;;;;5087433;28;20203;-75
2020/12/07 03:40:33;;;;;;;123.83;56.23;;;2.10;99.90;;;;;;5092389;28;20190;-75
2020/12/07 03:43:00;;;;;;;117.13;56.13;;;2.10;99.90;;;;;;5089242;28;20256;-75
2020/12/07 03:45:27;;;;;;;121.90;56.10;;;2.00;99.90;;;;;;5076415;28;20207;-76
2020/12/07 03:47:54;;;;;;;117.97;54.93;;;2.00;99.90;;;;;;5095551;28;20208;-75
2020/12/07 03:50:20;;;;;;;125.20;57.20;;;2.00;99.90;;;;;;5108306;28;20201;-74
2020/12/07 03:52:47;;;;;;;121.63;54.70;;;2.10;99.90;;;;;;5098615;28;20190;-75
2020/12/07 03:55:13;;;;;;;127.40;54.10;;;2.10;99.90;;;;;;5096104;28;20712;-75
2020/12/07 03:57:39;;;;;;;115.20;54.77;;;2.10;99.90;;;;;;5095988;28;20198;-75
2020/12/07 04:00:07;;;;;;;127.73;56.63;;;2.10;99.90;;;;;;5096401;28;20217;-75
2020/12/07 04:02:34;;;;;;;123.53;56.83;;;2.00;99.90;;;;;;5096131;28;20210;-75
2020/12/07 04:05:04;;;;;;;120.00;53.93;;;2.00;99.90;;;;;;5095940;28;20652;-75
2020/12/07 04:07:31;;;;;;;125.93;55.03;;;2.00;99.90;;;;;;5095203;28;20669;-74
2020/12/07 04:09:58;;;;;;;122.63;53.33;;;2.00;99.90;;;;;;5100866;28;20206;-75
2020/12/07 04:12:24;;;;;;;127.77;53.10;;;2.00;99.90;;;;;;5105640;28;20205;-74
2020/12/07 04:14:50;;;;;;;117.33;54.70;;;2.00;99.90;;;;;;5081654;28;20214;-74
2020/12/07 04:17:17;;;;;;;125.50;53.77;;;1.90;99.90;;;;;;5096419;28;20206;-74
2020/12/07 04:19:44;;;;;;;123.77;53.33;;;2.10;99.90;;;;;;5095627;28;20199;-74
2020/12/07 04:22:10;;;;;;;127.40;54.63;;;1.90;99.90;;;;;;5089259;28;20560;-74
2020/12/07 04:24:36;;;;;;;122.10;52.30;;;1.90;99.90;;;;;;5088533;28;20633;-75
2020/12/07 04:27:03;;;;;;;125.27;53.53;;;2.00;99.90;;;;;;5095688;28;20198;-75
2020/12/07 04:29:29;;;;;;;121.30;52.13;;;1.90;99.90;;;;;;5085184;28;20293;-75
2020/12/07 04:31:55;;;;;;;117.13;50.77;;;2.00;99.90;;;;;;5092487;28;20537;-76
2020/12/07 04:34:22;;;;;;;118.10;50.43;;;1.90;99.90;;;;;;5104257;28;20224;-75
2020/12/07 04:36:53;;;;;;;110.43;48.30;;;2.00;99.90;;;;;;5085733;28;20206;-76
2020/12/07 04:39:19;;;;;;;103.00;48.83;;;2.00;99.90;;;;;;5075370;28;20662;-74
2020/12/07 04:41:46;;;;;;;112.03;47.60;;;2.00;99.90;;;;;;5075139;28;20206;-75
2020/12/07 04:44:12;;;;;;;103.03;47.77;;;2.00;99.90;;;;;;5089333;28;20203;-74
2020/12/07 04:46:39;;;;;;;109.00;48.77;;;2.10;99.90;;;;;;5086913;28;20205;-74
2020/12/07 04:49:05;;;;;;;110.93;49.40;;;1.90;99.90;;;;;;5095294;28;20206;-75
2020/12/07 04:51:32;;;;;;;114.67;49.90;;;2.00;99.90;;;;;;5085140;28;20203;-74
2020/12/07 04:54:02;;;;;;;110.03;50.97;;;2.00;99.90;;;;;;5075133;28;20222;-74
2020/12/07 04:56:31;;;;;;;113.17;51.63;;;2.00;99.90;;;;;;5075650;28;20217;-74
2020/12/07 04:58:57;;;;;;;112.50;50.03;;;2.00;99.90;;;;;;5089714;28;20210;-75
2020/12/07 05:01:24;;;;;;;114.40;50.33;;;2.00;99.90;;;;;;5095177;28;20205;-74
2020/12/07 05:03:50;;;;;;;120.27;52.50;;;1.90;99.90;;;;;;5095057;28;20288;-74
2020/12/07 05:06:19;;;;;;;112.43;51.03;;;1.90;99.90;;;;;;5075135;28;20199;-75
2020/12/07 05:08:46;;;;;;;114.33;50.17;;;1.90;99.90;;;;;;5086698;28;20202;-74
2020/12/07 05:11:13;;;;;;;123.13;52.80;;;1.90;99.90;;;;;;5084542;28;20216;-74
2020/12/07 05:13:42;;;;;;;110.67;51.13;;;1.80;99.90;;;;;;5104469;28;20208;-74
2020/12/07 05:16:09;;;;;;;108.27;49.77;;;1.80;99.90;;;;;;5094518;28;20682;-74
2020/12/07 05:18:38;;;;;;;113.23;49.97;;;1.80;99.90;;;;;;5094638;28;20217;-74
2020/12/07 05:21:05;;;;;;;108.80;51.00;;;1.90;99.90;;;;;;5090298;28;20201;-74
2020/12/07 05:23:35;;;;;;;106.87;49.13;;;1.80;99.90;;;;;;5090773;28;20206;-73
2020/12/07 05:26:02;;;;;;;104.43;49.23;;;1.80;99.90;;;;;;5084374;28;20281;-73
2020/12/07 05:28:37;;;;;;;110.43;51.10;;;1.70;99.90;;;;;;5094114;28;20672;-74
2020/12/07 05:31:03;;;;;;;104.00;50.40;;;1.90;99.90;;;;;;5084530;28;20672;-73
2020/12/07 05:33:30;;;;;;;98.60;49.63;;;1.90;99.90;;;;;;5089545;28;20207;-74
2020/12/07 05:35:57;;;;;;;115.40;50.43;;;1.80;99.90;;;;;;5086278;28;20233;-74
2020/12/07 05:38:32;;;;;;;108.97;50.07;;;1.80;99.90;;;;;;5074215;28;20557;-75
2020/12/07 05:41:01;;;;;;;104.43;50.10;;;1.80;99.90;;;;;;5073824;28;20702;-73
2020/12/07 05:43:30;;;;;;;100.53;48.27;;;1.80;99.90;;;;;;5087600;28;20736;-73
2020/12/07 05:45:58;;;;;;;98.03;48.77;;;1.90;99.90;;;;;;5079851;28;20198;-73
2020/12/07 05:48:29;;;;;;;94.83;47.67;;;1.80;99.90;;;;;;5081521;28;20324;-74
2020/12/07 05:50:56;;;;;;;97.93;47.57;;;1.80;99.90;;;;;;5088130;28;20215;-73
2020/12/07 05:53:25;;;;;;;98.70;47.40;;;1.80;99.90;;;;;;5084901;28;20205;-74
2020/12/07 05:55:52;;;;;;;98.53;47.10;;;1.90;99.90;;;;;;5093873;28;20214;-75
2020/12/07 05:58:21;;;;;;;113.63;50.30;;;1.70;99.90;;;;;;5093357;28;20715;-76
2020/12/07 06:00:52;;;;;;;102.67;49.17;;;1.80;99.90;;;;;;5093675;28;20198;-74
2020/12/07 06:03:18;;;;;;;99.93;47.53;;;1.70;99.90;;;;;;5093645;28;20289;-74
2020/12/07 06:05:45;;;;;;;101.03;48.83;;;1.70;99.90;;;;;;5093379;28;20259;-74
2020/12/07 06:08:16;;;;;;;98.30;48.23;;;1.90;99.90;;;;;;5086362;28;20210;-73
2020/12/07 06:10:45;;;;;;;101.33;48.73;;;1.70;99.90;;;;;;5087807;28;20202;-73
2020/12/07 06:13:14;;;;;;;108.40;49.00;;;1.80;99.90;;;;;;5079673;28;20198;-74
2020/12/07 06:15:44;;;;;;;101.93;48.40;;;1.70;99.90;;;;;;5093180;28;20795;-74
2020/12/07 06:18:25;;;;;;;102.77;48.73;;;1.80;99.90;;;;;;5093091;28;20198;-74
2020/12/07 06:20:55;;;;;;;102.20;50.33;;;1.70;99.90;;;;;;5093324;28;20225;-73
2020/12/07 06:23:30;;;;;;;108.90;50.97;;;1.70;99.90;;;;;;5093177;28;20224;-74
2020/12/07 06:26:00;;;;;;;93.07;47.80;;;1.60;99.90;;;;;;5093052;28;20220;-73
2020/12/07 06:28:36;;;;;;;94.67;47.80;;;1.70;99.90;;;;;;5092896;28;20214;-75
2020/12/07 06:31:10;;;;;;;95.70;48.10;;;1.80;99.90;;;;;;5092379;28;20194;-75
2020/12/07 06:33:43;;;;;;;98.73;49.53;;;1.70;99.90;;;;;;5104936;28;20295;-76
2020/12/07 06:36:35;;;;;;;95.10;47.57;;;1.80;99.90;;;;;;5082622;28;20280;-73
2020/12/07 06:39:04;;;;;;;99.03;49.53;;;1.60;99.90;;;;;;5057957;28;20294;-74
2020/12/07 06:41:36;;;;;;;93.03;45.70;;;1.60;99.90;;;;;;5084932;28;20202;-76
2020/12/07 06:44:06;;;;;;;92.33;45.87;;;1.60;99.90;;;;;;5093400;28;20278;-74
2020/12/07 06:46:51;;;;;;;94.60;46.33;;;1.60;99.90;;;;;;5093567;28;20285;-76
2020/12/07 06:49:22;;;;;;;93.63;47.40;;;1.70;99.90;;;;;;5093460;28;20206;-74
2020/12/07 06:51:57;;;;;;;97.40;45.10;;;1.70;99.90;;;;;;5093013;28;20676;-75
2020/12/07 06:57:20;;;;;;;100.40;47.70;;;1.60;99.90;;;;;;5082569;28;20576;-74
2020/12/07 06:59:58;;;;;;;103.40;48.67;;;1.70;99.90;;;;;;5085541;28;20598;-74
2020/12/07 07:02:24;;;;;;;101.33;47.17;;;1.80;99.90;;;;;;5092565;28;20198;-74
2020/12/07 07:04:59;;;;;;;103.77;47.77;;;1.70;99.90;;;;;;5092941;28;20562;-74
2020/12/07 07:07:27;;;;;;;90.50;46.40;;;1.60;99.90;;;;;;5092653;28;20208;-75
2020/12/07 07:09:54;;;;;;;94.37;47.47;;;1.60;99.90;;;;;;5092475;28;20203;-77
2020/12/07 07:12:21;;;;;;;104.90;50.07;;;1.70;99.90;;;;;;5082703;28;20282;-74
2020/12/07 07:14:52;;;;;;;94.43;46.80;;;1.60;99.90;;;;;;5092303;28;20217;-74
2020/12/07 07:17:19;;;;;;;101.90;47.53;;;1.60;99.90;;;;;;5092715;28;20263;-74
2020/12/07 07:19:45;;;;;;;99.17;46.47;;;1.60;99.90;;;;;;5092238;28;20288;-74
2020/12/07 07:22:13;;;;;;;99.90;46.63;;;1.60;99.90;;;;;;5086156;28;20225;-76
2020/12/07 07:24:47;;;;;;;100.90;47.83;;;1.70;99.90;;;;;;5085144;28;20209;-74
2020/12/07 07:29:58;;;;;;;106.37;49.03;;;1.70;99.90;;;;;;5092193;28;20209;-76
2020/12/07 07:32:25;;;;;;;99.33;48.13;;;1.60;99.90;;;;;;5079175;28;20206;-75
2020/12/07 07:34:51;;;;;;;98.07;47.40;;;1.60;99.90;;;;;;5092241;28;20226;-75
2020/12/07 07:37:19;;;;;;;96.90;47.37;;;1.60;99.90;;;;;;5073817;28;20202;-75
2020/12/07 07:39:46;;;;;;;97.77;48.30;;;1.60;99.90;;;;;;5083548;28;20204;-76
2020/12/07 07:42:15;;;;;;;97.40;46.90;;;1.70;99.90;;;;;;5093200;28;20200;-76
2020/12/07 07:44:45;;;;;;;93.63;44.07;;;1.70;99.90;;;;;;5086439;28;20210;-75
2020/12/07 07:47:16;;;;;;;86.23;44.20;;;1.70;99.90;;;;;;5090337;28;20205;-76
2020/12/07 08:18:06;;;;;;;90.67;46.60;;;2.30;99.90;;;;;;5087345;28;20210;-76
2020/12/07 08:20:34;;;;;;;103.00;45.63;;;1.90;99.90;;;;;;5095472;28;20202;-75
2020/12/07 08:23:02;;;;;;;105.47;47.87;;;1.80;99.90;;;;;;5081808;28;20268;-75
2020/12/07 08:25:50;;;;;;;109.27;48.03;;;1.90;99.90;;;;;;5081020;28;20579;-75
2020/12/07 08:28:30;;;;;;;112.30;47.37;;;1.90;99.90;;;;;;5095294;28;20198;-75
2020/12/07 08:31:10;;;;;;;92.50;44.60;;;2.00;99.90;;;;;;5086808;28;20198;-75
2020/12/07 08:33:39;;;;;;;103.07;47.33;;;2.00;99.90;;;;;;5078043;28;20550;-76
2020/12/07 08:36:08;;;;;;;97.77;47.30;;;2.00;99.90;;;;;;5094849;28;20225;-75
2020/12/07 08:38:37;;;;;;;103.83;49.50;;;2.00;99.90;;;;;;5095221;28;20229;-76
2020/12/07 08:41:10;;;;;;;107.40;47.43;;;2.00;99.90;;;;;;5095096;28;20217;-75
2020/12/07 08:43:38;;;;;;;105.93;47.47;;;2.00;99.90;;;;;;5095005;28;20206;-75
2020/12/07 08:46:06;;;;;;;104.73;49.23;;;2.10;99.90;;;;;;5095358;28;20279;-75
2020/12/07 08:48:33;;;;;;;101.87;46.17;;;2.10;99.90;;;;;;5084297;28;20222;-76
2020/12/07 08:50:59;;;;;;;109.23;47.17;;;2.20;99.90;;;;;;5094845;28;20242;-75
2020/12/07 08:53:25;;;;;;;105.53;47.63;;;2.30;99.90;;;;;;5094645;28;20205;-75
2020/12/07 08:55:52;;;;;;;100.93;47.47;;;2.30;99.90;;;;;;5094524;28;20230;-75
2020/12/07 08:58:19;;;;;;;103.33;46.60;;;2.30;99.90;;;;;;5095327;28;20202;-75
2020/12/07 09:00:45;;;;;;;98.17;45.57;;;2.30;99.90;;;;;;5087464;28;21558;-80
2020/12/07 09:03:13;;;;;;;84.93;43.27;;;2.20;99.90;;;;;;5077169;28;20555;-77
2020/12/07 09:05:39;;;;;;;91.03;44.00;;;2.20;99.90;;;;;;5084272;28;20203;-75
2020/12/07 09:08:06;;;;;;;102.70;44.87;;;2.20;99.90;;;;;;5085765;28;20194;-75
2020/12/07 09:10:33;;;;;;;98.53;46.80;;;2.20;99.90;;;;;;5083525;28;20251;-76
2020/12/07 09:12:59;;;;;;;98.13;46.23;;;2.20;99.90;;;;;;5081368;28;20195;-75
2020/12/07 09:15:26;;;;;;;94.97;45.97;;;2.20;99.90;;;;;;5083467;28;20219;-77
2020/12/07 09:17:53;;;;;;;92.83;42.57;;;2.10;99.90;;;;;;5083302;28;20198;-76
2020/12/07 09:20:19;;;;;;;85.67;41.57;;;2.30;99.90;;;;;;5083553;28;20238;-76
2020/12/07 09:22:45;;;;;;;84.03;40.57;;;2.20;99.90;;;;;;5085149;28;20210;-76
2020/12/07 09:25:12;;;;;;;93.10;44.17;;;2.30;99.90;;;;;;5083243;28;20208;-76
2020/12/07 09:27:38;;;;;;;89.10;43.70;;;2.40;99.90;;;;;;5083058;28;20198;-76
2020/12/07 09:30:05;;;;;;;83.87;41.73;;;2.60;99.90;;;;;;5083610;28;20211;-76
2020/12/07 09:32:32;;;;;;;91.83;44.83;;;2.50;99.90;;;;;;5081871;28;20210;-77
2020/12/07 09:34:58;;;;;;;98.87;43.73;;;2.40;99.90;;;;;;5083200;28;20233;-75
2020/12/07 09:37:25;;;;;;;97.23;44.90;;;2.50;99.90;;;;;;5082999;28;20213;-76
2020/12/07 09:39:52;;;;;;;89.77;43.87;;;2.50;99.90;;;;;;5083135;28;20669;-75
2020/12/07 09:42:18;;;;;;;89.13;44.07;;;2.60;99.90;;;;;;5086667;28;20726;-76
2020/12/07 09:44:44;;;;;;;93.63;43.43;;;2.60;99.90;;;;;;5087025;28;20228;-77
2020/12/07 09:47:11;;;;;;;102.27;43.87;;;2.60;99.90;;;;;;5082700;28;20199;-76
2020/12/07 09:49:38;;;;;;;99.30;46.87;;;2.50;99.90;;;;;;5082931;28;20626;-76
2020/12/07 09:52:05;;;;;;;95.27;46.80;;;2.50;99.90;;;;;;5084672;28;20207;-78
2020/12/07 09:54:36;;;;;;;91.67;45.57;;;2.50;99.90;;;;;;5079504;28;20235;-76
2020/12/07 09:57:03;;;;;;;102.10;45.80;;;2.40;99.90;;;;;;5078975;28;20257;-77
2020/12/07 09:59:29;;;;;;;111.87;48.83;;;2.40;99.90;;;;;;5084353;28;21399;-76
2020/12/07 10:01:56;;;;;;;104.13;48.17;;;2.30;99.90;;;;;;5082205;28;20213;-75
2020/12/07 10:04:22;;;;;;;105.03;49.80;;;2.30;99.90;;;;;;5080825;28;20190;-76
2020/12/07 10:06:49;;;;;;;115.50;48.70;;;2.40;99.90;;;;;;5083883;28;20195;-75
2020/12/07 10:09:16;;;;;;;110.23;51.20;;;2.30;99.90;;;;;;5092670;28;20209;-75
2020/12/07 10:11:42;;;;;;;107.20;51.93;;;2.20;99.90;;;;;;5081601;28;20202;-77
2020/12/07 10:14:09;;;;;;;111.50;52.70;;;2.30;99.90;;;;;;5082366;28;20214;-78
2020/12/07 10:16:35;;;;;;;109.97;52.97;;;2.30;99.90;;;;;;5080811;28;20253;-77
2020/12/07 10:19:02;;;;;;;112.33;54.03;;;2.40;99.90;;;;;;5084629;28;20198;-76
2020/12/07 10:21:28;;;;;;;108.70;51.43;;;2.40;99.90;;;;;;5082403;28;20345;-76
2020/12/07 10:23:55;;;;;;;115.83;52.47;;;2.50;99.90;;;;;;5083435;28;20546;-75
2020/12/07 10:26:23;;;;;;;111.83;53.60;;;2.50;99.90;;;;;;5079764;28;20721;-77
2020/12/07 10:28:49;;;;;;;116.70;53.83;;;2.60;99.90;;;;;;5082609;28;20202;-75
2020/12/07 10:31:16;;;;;;;115.57;52.53;;;2.70;99.90;;;;;;5082245;28;20202;-77
2020/12/07 10:33:42;;;;;;;118.13;54.73;;;2.70;99.90;;;;;;5080559;28;20218;-75
2020/12/07 10:36:08;;;;;;;116.40;52.90;;;2.80;99.90;;;;;;5081550;28;20236;-77
2020/12/07 10:38:35;;;;;;;117.37;51.87;;;2.80;99.90;;;;;;5078894;28;20205;-77
2020/12/07 10:41:02;;;;;;;110.97;55.03;;;2.90;99.90;;;;;;5084355;28;20202;-77
2020/12/07 10:43:30;;;;;;;107.57;55.57;;;2.90;99.90;;;;;;5083862;28;20205;-76
2020/12/07 10:45:56;;;;;;;115.00;52.83;;;2.80;99.90;;;;;;5080245;28;20241;-78
2020/12/07 10:48:22;;;;;;;108.70;53.73;;;3.00;99.90;;;;;;5081597;28;20204;-76
2020/12/07 10:50:49;;;;;;;108.73;54.33;;;2.80;99.90;;;;;;5080130;28;20306;-76
2020/12/07 10:53:15;;;;;;;110.73;54.00;;;2.80;99.90;;;;;;5083139;28;20198;-74
2020/12/07 10:55:42;;;;;;;119.07;58.23;;;2.90;99.90;;;;;;5081319;28;20222;-75
2020/12/07 10:58:09;;;;;;;117.83;57.33;;;3.00;99.90;;;;;;5079965;28;20207;-75
2020/12/07 11:00:37;;;;;;;107.50;51.67;;;3.00;99.90;;;;;;5088077;28;20206;-74
2020/12/07 11:03:04;;;;;;;109.83;52.13;;;3.00;99.90;;;;;;5072051;28;20740;-74
2020/12/07 11:05:30;;;;;;;109.47;51.67;;;3.00;99.90;;;;;;5085541;28;20285;-76
2020/12/07 11:07:56;;;;;;;109.70;54.30;;;3.00;99.90;;;;;;5087528;28;20203;-75
2020/12/07 11:10:23;;;;;;;111.67;52.53;;;3.00;99.90;;;;;;5084307;28;20287;-74
2020/12/07 11:12:56;;;;;;;109.20;52.93;;;3.00;99.90;;;;;;5078924;28;20285;-74
2020/12/07 11:15:23;;;;;;;96.87;50.80;;;3.00;99.90;;;;;;5082721;28;20581;-74
2020/12/07 11:17:49;;;;;;;106.83;51.90;;;2.90;99.90;;;;;;5074288;28;20260;-74
2020/12/07 11:20:16;;;;;;;101.43;51.90;;;2.90;99.90;;;;;;5081570;28;20202;-75
2020/12/07 11:22:42;;;;;;;94.40;49.67;;;2.90;99.90;;;;;;5085687;28;20654;-75
2020/12/07 11:25:08;;;;;;;91.00;48.00;;;2.90;99.90;;;;;;5093850;28;20213;-75
2020/12/07 11:27:35;;;;;;;96.87;50.40;;;3.00;99.90;;;;;;5096554;28;20202;-75
2020/12/07 11:30:01;;;;;;;96.60;46.83;;;3.00;99.90;;;;;;5096582;28;20212;-74
2020/12/07 11:32:28;;;;;;;94.03;48.40;;;3.20;99.90;;;;;;5089740;28;20216;-75
2020/12/07 11:34:55;;;;;;;99.03;49.03;;;3.00;99.90;;;;;;5089975;28;20317;-74
2020/12/07 11:37:21;;;;;;;104.00;51.80;;;3.00;99.90;;;;;;5082104;28;20205;-75
2020/12/07 11:39:52;;;;;;;97.50;48.30;;;3.10;99.90;;;;;;5096563;28;20198;-75
2020/12/07 11:42:34;;;;;;;96.13;48.27;;;3.10;99.90;;;;;;5096418;28;20543;-75
2020/12/07 11:45:01;;;;;;;104.37;52.00;;;3.20;99.90;;;;;;5096972;28;20230;-75
2020/12/07 11:47:28;;;;;;;109.67;52.30;;;3.20;99.90;;;;;;5081918;28;20572;-74
2020/12/07 11:49:54;;;;;;;96.53;49.43;;;3.20;99.90;;;;;;5085906;28;20216;-76
2020/12/07 11:52:21;;;;;;;93.90;49.13;;;3.30;99.90;;;;;;5093086;28;20198;-75
2020/12/07 11:54:47;;;;;;;89.10;48.00;;;3.40;99.90;;;;;;5095901;28;20232;-75
2020/12/07 11:57:14;;;;;;;84.83;47.97;;;3.90;99.90;;;;;;5096647;28;20349;-75
2020/12/07 11:59:41;;;;;;;77.87;46.27;;;3.50;99.90;;;;;;5096238;28;20206;-75
2020/12/07 12:02:07;;;;;;;81.03;43.83;;;3.40;99.90;;;;;;5096706;28;20221;-75
2020/12/07 12:04:34;;;;;;;75.77;42.97;;;3.50;99.90;;;;;;5081976;28;20288;-75
2020/12/07 12:07:01;;;;;;;80.13;42.10;;;3.70;99.90;;;;;;5096766;28;20285;-75
2020/12/07 12:09:28;;;;;;;75.90;44.67;;;3.60;99.90;;;;;;5092871;28;20233;-75
2020/12/07 12:11:55;;;;;;;76.40;43.50;;;3.70;99.90;;;;;;5085439;28;20242;-75
2020/12/07 12:14:21;;;;;;;80.53;44.57;;;3.80;99.90;;;;;;5095546;28;20205;-76
2020/12/07 12:16:48;;;;;;;74.60;42.10;;;3.80;99.90;;;;;;5095660;28;20232;-75
2020/12/07 12:19:14;;;;;;;74.50;43.70;;;3.80;99.90;;;;;;5095577;28;20202;-80
2020/12/07 12:21:41;;;;;;;76.90;43.73;;;3.90;99.90;;;;;;5091822;28;20206;-76
2020/12/07 12:24:08;;;;;;;73.93;44.10;;;3.80;99.90;;;;;;5095812;28;20293;-75
2020/12/07 12:26:35;;;;;;;76.03;44.53;;;3.90;99.90;;;;;;5095397;28;20202;-76
2020/12/07 12:29:02;;;;;;;71.77;42.23;;;3.90;99.90;;;;;;5088070;28;20229;-77
2020/12/07 12:31:29;;;;;;;70.57;40.43;;;4.00;99.90;;;;;;5075640;28;20299;-76
2020/12/07 12:33:56;;;;;;;66.80;41.77;;;4.00;99.90;;;;;;5089086;28;20370;-76
2020/12/07 12:36:24;;;;;;;66.77;40.83;;;3.90;99.90;;;;;;5086407;28;20229;-77
2020/12/07 12:38:51;;;;;;;67.53;40.20;;;3.90;99.90;;;;;;5077402;28;20293;-76
2020/12/07 12:41:19;;;;;;;71.80;40.17;;;3.90;99.90;;;;;;5075166;28;20658;-77
2020/12/07 12:43:45;;;;;;;70.40;41.33;;;3.70;99.90;;;;;;5088996;28;20202;-74
2020/12/07 12:46:12;;;;;;;74.77;42.37;;;3.60;99.90;;;;;;5075567;28;20199;-76
2020/12/07 12:48:38;;;;;;;70.10;40.03;;;3.70;99.90;;;;;;5074705;28;20654;-77
2020/12/07 12:51:07;;;;;;;65.57;38.83;;;3.80;99.90;;;;;;5088974;28;20209;-77
2020/12/07 12:53:33;;;;;;;70.17;40.43;;;3.70;99.90;;;;;;5087837;28;20194;-76
2020/12/07 12:56:01;;;;;;;66.67;38.97;;;3.70;99.90;;;;;;5094922;28;20301;-76
2020/12/07 12:58:27;;;;;;;70.67;40.27;;;3.60;99.90;;;;;;5094608;28;20206;-77
2020/12/07 13:00:53;;;;;;;69.20;39.33;;;3.70;99.90;;;;;;5094654;28;20194;-76
2020/12/07 13:03:20;;;;;;;72.00;40.47;;;3.70;99.90;;;;;;5085851;28;20203;-76
2020/12/07 13:05:47;;;;;;;70.73;39.33;;;3.70;99.90;;;;;;5089681;28;20228;-77